Caister-on-Sea, United Kingdom
Current Conditions -  °F | °C
As of 1:20 PM on Wednesday 22 Oct 2014 (Local Time) from EGSD Reporting Station
Few Clouds Few Clouds  
Wind Chill: 55°   Ceiling: Unl
Heat Index: 55°   Visibility: 6mi
Dew Point: 46°   Wind: 15mph
Humidity: 72%   Direction: 300°WNW
Pressure: 30.18"   Gusts: NA
Location:  52.65°N, 1.73°E
Report Text: EGSD 221220Z 30013KT 9999 FEW026 13/08 Q1022
Loading
Personal Weather Stations






























Interactive Weather Map
Tropical Storm Tracking
New forecast layout! Learn more

10-Day Weather Forecast

Advertisements
Track Severe Weather on mobile